createdAt,value
2018-09-29T00:00:20.803Z,55.76
2018-09-29T00:02:49.173Z,55.26
2018-09-29T00:05:17.625Z,56.00
2018-09-29T00:07:46.002Z,55.33
2018-09-29T00:10:14.394Z,55.34
2018-09-29T00:12:42.818Z,55.29
2018-09-29T00:15:11.203Z,56.15
2018-09-29T00:17:39.613Z,55.51
2018-09-29T00:20:08.024Z,55.33
2018-09-29T00:22:36.434Z,56.14
2018-09-29T00:25:04.925Z,55.76
2018-09-29T00:27:33.330Z,55.77
2018-09-29T00:30:01.938Z,55.42
2018-09-29T00:32:30.871Z,55.15
2018-09-29T00:34:59.302Z,55.20
2018-09-29T00:37:27.714Z,55.58
2018-09-29T00:39:56.124Z,55.88
2018-09-29T00:42:24.569Z,55.33
2018-09-29T00:44:52.997Z,55.68
2018-09-29T00:47:21.429Z,55.70
2018-09-29T00:49:49.826Z,55.46
2018-09-29T00:52:18.265Z,55.68
2018-09-29T00:54:46.702Z,55.76
2018-09-29T00:57:15.170Z,55.68
2018-09-29T00:59:43.590Z,55.75
2018-09-29T01:02:12.066Z,55.75
2018-09-29T01:04:40.498Z,55.70
2018-09-29T01:07:08.891Z,54.80
2018-09-29T01:09:37.313Z,55.43
2018-09-29T01:12:05.730Z,55.76
2018-09-29T01:14:34.390Z,55.40
2018-09-29T01:17:02.905Z,55.84
2018-09-29T01:19:31.341Z,55.28
2018-09-29T01:21:59.759Z,54.87
2018-09-29T01:24:29.281Z,55.76
2018-09-29T01:26:57.694Z,55.57
2018-09-29T01:29:26.114Z,55.69
2018-09-29T01:31:54.511Z,55.38
2018-09-29T01:34:22.969Z,55.44
2018-09-29T01:36:51.370Z,55.40
2018-09-29T01:39:19.798Z,54.79
2018-09-29T01:41:48.205Z,54.74
2018-09-29T01:44:16.633Z,54.49
2018-09-29T01:46:45.018Z,55.00
2018-09-29T01:49:13.430Z,54.73
2018-09-29T01:51:41.841Z,53.96
2018-09-29T01:54:10.295Z,54.77
2018-09-29T01:56:38.754Z,53.88
2018-09-29T01:59:07.220Z,54.30
2018-09-29T02:01:35.645Z,54.32
2018-09-29T02:04:04.066Z,53.34
2018-09-29T02:06:32.502Z,53.02
2018-09-29T02:09:00.901Z,52.44
2018-09-29T02:11:29.341Z,52.53
2018-09-29T02:13:57.729Z,52.23
2018-09-29T02:16:26.443Z,52.21
2018-09-29T02:18:54.857Z,52.17
2018-09-29T02:21:23.301Z,51.90
2018-09-29T02:23:51.697Z,51.85
2018-09-29T02:26:20.162Z,51.80
2018-09-29T02:28:48.634Z,51.50
2018-09-29T02:31:17.013Z,51.50
2018-09-29T02:33:45.407Z,51.74
2018-09-29T02:36:13.866Z,50.98
2018-09-29T02:38:42.286Z,50.97
2018-09-29T02:41:11.154Z,51.17
2018-09-29T02:43:39.546Z,51.55
2018-09-29T02:46:07.994Z,51.04
2018-09-29T02:48:36.390Z,51.21
2018-09-29T02:51:04.922Z,50.60
2018-09-29T02:53:33.325Z,51.00
2018-09-29T02:56:01.990Z,50.65
2018-09-29T02:58:30.445Z,50.93
2018-09-29T03:00:58.858Z,50.96
2018-09-29T03:03:27.310Z,50.86
2018-09-29T03:05:55.727Z,51.01
2018-09-29T03:08:24.142Z,50.68
2018-09-29T03:10:52.538Z,50.40
2018-09-29T03:13:21.258Z,50.65
2018-09-29T03:15:49.737Z,50.56
2018-09-29T03:18:18.183Z,50.81
2018-09-29T03:20:46.573Z,51.14
2018-09-29T03:23:15.010Z,50.95
2018-09-29T03:25:43.385Z,50.99
2018-09-29T03:28:11.837Z,51.44
2018-09-29T03:30:40.214Z,50.80
2018-09-29T03:33:08.626Z,51.51
2018-09-29T03:35:37.005Z,50.33
2018-09-29T03:38:05.650Z,50.97
2018-09-29T03:40:34.021Z,50.62
2018-09-29T03:43:02.955Z,50.65
2018-09-29T03:45:31.397Z,50.65
2018-09-29T03:47:59.774Z,51.04
2018-09-29T03:50:28.193Z,50.74
2018-09-29T03:52:56.570Z,51.42
2018-09-29T03:55:25.018Z,50.68
2018-09-29T03:57:53.392Z,51.50
2018-09-29T04:00:21.823Z,51.49
2018-09-29T04:02:50.186Z,51.02
2018-09-29T04:05:18.601Z,51.78
2018-09-29T04:07:46.965Z,51.99
2018-09-29T04:10:15.357Z,51.83
2018-09-29T04:12:43.734Z,52.17
2018-09-29T04:15:12.142Z,51.83
2018-09-29T04:17:40.518Z,51.38
2018-09-29T04:20:08.924Z,51.41
2018-09-29T04:22:37.283Z,51.57
2018-09-29T04:25:05.741Z,51.43
2018-09-29T04:27:34.126Z,51.15
2018-09-29T04:30:02.905Z,51.78
2018-09-29T04:32:31.306Z,51.07
2018-09-29T04:34:59.713Z,51.78
2018-09-29T04:37:28.085Z,52.16
2018-09-29T04:39:56.567Z,51.55
2018-09-29T04:42:24.927Z,51.75
2018-09-29T04:44:53.294Z,51.93
2018-09-29T04:47:21.714Z,51.83
2018-09-29T04:49:50.094Z,51.03
2018-09-29T04:52:18.518Z,51.51
2018-09-29T04:54:46.881Z,51.84
2018-09-29T04:57:15.301Z,51.68
2018-09-29T04:59:43.674Z,50.80
2018-09-29T05:02:12.101Z,51.54
2018-09-29T05:04:40.481Z,50.96
2018-09-29T05:07:08.882Z,51.18
2018-09-29T05:09:37.321Z,50.63
2018-09-29T05:12:05.753Z,51.21
2018-09-29T05:14:34.134Z,50.16
2018-09-29T05:17:02.977Z,50.72
2018-09-29T05:19:31.337Z,50.54
2018-09-29T05:21:59.753Z,50.43
2018-09-29T05:24:28.131Z,50.33
2018-09-29T05:26:56.549Z,50.25
2018-09-29T05:29:24.934Z,51.08
2018-09-29T05:31:53.305Z,50.74
2018-09-29T05:34:21.735Z,50.87
2018-09-29T05:36:50.118Z,50.41
2018-09-29T05:39:19.710Z,50.83
2018-09-29T05:41:48.435Z,50.05
2018-09-29T05:44:17.177Z,50.88
2018-09-29T05:46:46.352Z,51.13
2018-09-29T05:49:15.135Z,50.05
2018-09-29T05:51:44.186Z,50.73
2018-09-29T05:54:13.225Z,50.97
2018-09-29T05:56:42.127Z,50.67
2018-09-29T05:59:13.611Z,50.39
2018-09-29T06:01:42.126Z,49.80
2018-09-29T06:04:10.735Z,49.75
2018-09-29T06:06:39.314Z,49.90
2018-09-29T06:09:09.177Z,49.98
2018-09-29T06:11:40.823Z,50.31
2018-09-29T06:14:15.999Z,50.00
2018-09-29T06:16:44.668Z,49.53
2018-09-29T06:19:13.323Z,49.87
2018-09-29T06:21:43.222Z,49.97
2018-09-29T06:24:11.723Z,50.53
2018-09-29T06:26:40.146Z,49.76
2018-09-29T06:29:08.801Z,49.99
2018-09-29T06:31:37.355Z,50.17
2018-09-29T06:34:06.240Z,50.80
2018-09-29T06:36:55.273Z,50.20
2018-09-29T06:39:23.758Z,50.15
2018-09-29T06:41:52.210Z,50.46
2018-09-29T06:44:20.650Z,50.95
2018-09-29T06:46:49.134Z,50.85
2018-09-29T06:49:17.581Z,49.75
2018-09-29T07:30:06.452Z,50.27
2018-09-29T07:32:34.974Z,50.91
2018-09-29T07:35:03.527Z,50.98
2018-09-29T07:37:32.000Z,50.75
2018-09-29T07:43:03.761Z,50.56
2018-09-29T07:45:32.206Z,50.45
2018-09-29T07:48:00.677Z,50.59
2018-09-29T07:50:38.055Z,50.25
2018-09-29T07:53:06.595Z,50.69
2018-09-29T07:55:35.084Z,49.75
2018-09-29T07:58:03.588Z,49.67
2018-09-29T08:00:32.019Z,49.54
2018-09-29T08:03:01.072Z,49.75
2018-09-29T08:05:29.491Z,48.92
2018-09-29T08:16:58.824Z,48.29
2018-09-29T08:19:28.522Z,48.76
2018-09-29T08:21:58.213Z,47.81
2018-09-29T08:24:27.864Z,47.42
2018-09-29T08:26:57.810Z,47.83
2018-09-29T08:29:27.617Z,47.92
2018-09-29T08:31:57.384Z,48.20
2018-09-29T08:34:27.163Z,47.61
2018-09-29T08:36:56.876Z,48.00
2018-09-29T08:39:29.187Z,47.67
2018-09-29T08:41:59.596Z,47.06
2018-09-29T08:44:29.209Z,46.93
2018-09-29T08:46:58.975Z,45.91
2018-09-29T08:49:29.173Z,45.92
2018-09-29T08:51:58.893Z,45.77
2018-09-29T08:54:28.897Z,46.82
2018-09-29T08:56:58.751Z,46.21
2018-09-29T08:59:28.416Z,46.63
2018-09-29T09:01:58.937Z,46.38
2018-09-29T09:04:28.709Z,45.20
2018-09-29T09:06:58.572Z,44.87
2018-09-29T09:09:28.584Z,44.90
2018-09-29T09:11:58.136Z,45.02
2018-09-29T09:14:34.552Z,45.33
2018-09-29T09:17:04.259Z,45.01
2018-09-29T09:19:34.063Z,44.89
2018-09-29T09:22:03.932Z,44.25
2018-09-29T09:33:10.318Z,44.73
2018-09-29T09:35:38.889Z,44.24
2018-09-29T09:38:07.369Z,44.54
2018-09-29T09:40:35.996Z,43.50
2018-09-29T11:22:16.098Z,43.07
2018-09-29T11:24:46.939Z,43.29
2018-09-29T11:27:15.727Z,43.34
2018-09-29T11:56:57.495Z,42.97
2018-09-29T11:59:26.061Z,42.93
2018-09-29T12:01:54.576Z,43.19
2018-09-29T12:04:22.969Z,42.88
2018-09-29T12:06:51.472Z,43.34
2018-09-29T12:09:19.881Z,43.07
2018-09-29T12:11:48.345Z,42.51
2018-09-29T12:14:16.765Z,43.08
2018-09-29T12:16:45.711Z,41.65
2018-09-29T12:19:14.771Z,42.64
2018-09-29T12:21:44.061Z,42.44
2018-09-29T12:24:12.644Z,41.98
2018-09-29T12:26:41.199Z,42.68
2018-09-29T12:29:09.696Z,41.95
2018-09-29T12:31:38.141Z,41.73
2018-09-29T12:34:06.576Z,42.34
2018-09-29T12:36:35.021Z,41.92
2018-09-29T12:39:12.090Z,41.63
2018-09-29T12:41:40.517Z,41.19
2018-09-29T12:44:09.045Z,42.10
2018-09-29T12:46:37.453Z,42.21
2018-09-29T12:49:06.009Z,41.94
2018-09-29T12:51:34.483Z,41.78
2018-09-29T12:54:02.948Z,42.06
2018-09-29T12:56:31.415Z,41.43
2018-09-29T12:58:59.905Z,41.70
2018-09-29T13:01:28.249Z,41.51
2018-09-29T13:03:56.772Z,41.16
2018-09-29T13:06:25.176Z,41.43
2018-09-29T13:08:53.617Z,40.82
2018-09-29T13:11:22.068Z,41.09
2018-09-29T13:13:50.512Z,40.75
2018-09-29T13:16:18.918Z,40.69
2018-09-29T13:18:47.349Z,40.67
2018-09-29T13:21:15.759Z,40.66
2018-09-29T13:23:44.234Z,40.74
2018-09-29T13:26:12.672Z,40.21
2018-09-29T13:28:41.100Z,40.07
2018-09-29T13:31:09.603Z,39.76
2018-09-29T13:33:38.073Z,39.79
2018-09-29T13:36:06.535Z,39.30
2018-09-29T13:38:34.999Z,39.25
2018-09-29T13:41:04.274Z,38.76
2018-09-29T13:43:32.770Z,39.01
2018-09-29T13:46:01.330Z,38.63
2018-09-29T13:48:29.637Z,38.84
2018-09-29T13:50:58.445Z,38.00
2018-09-29T13:53:26.869Z,37.71
2018-09-29T13:55:55.434Z,37.22
2018-09-29T13:58:24.001Z,37.27
2018-09-29T14:00:53.026Z,37.08
2018-09-29T14:03:21.481Z,36.61
2018-09-29T14:05:50.016Z,36.73
2018-09-29T14:08:18.611Z,36.78
2018-09-29T14:10:47.413Z,35.83
2018-09-29T14:13:15.826Z,35.93
2018-09-29T14:15:44.338Z,35.93
2018-09-29T14:18:12.874Z,35.47
2018-09-29T14:20:41.509Z,34.65
2018-09-29T14:23:10.025Z,33.78
2018-09-29T14:25:38.549Z,34.01
2018-09-29T14:28:07.094Z,33.32
2018-09-29T14:30:35.542Z,33.29
2018-09-29T14:33:04.093Z,32.38
2018-09-29T14:35:32.499Z,31.91
2018-09-29T14:38:01.042Z,32.21
2018-09-29T14:40:29.893Z,31.23
2018-09-29T14:42:58.342Z,31.57
2018-09-29T14:45:26.766Z,30.19
2018-09-29T14:47:55.238Z,30.31
2018-09-29T14:50:23.694Z,30.01
2018-09-29T14:52:52.317Z,29.23
2018-09-29T14:55:21.369Z,28.07
2018-09-29T14:57:49.941Z,27.46
2018-09-29T15:00:18.366Z,26.16
2018-09-29T15:02:46.870Z,24.36
2018-09-29T15:05:16.699Z,22.80
2018-09-29T15:07:45.227Z,21.23
2018-09-29T15:10:13.825Z,21.04
2018-09-29T15:12:42.343Z,19.68
2018-09-29T15:15:10.906Z,18.70
2018-09-29T15:17:39.444Z,19.02
2018-09-29T15:20:07.974Z,18.92
2018-09-29T15:22:38.522Z,19.31
2018-09-29T15:25:07.028Z,18.40
2018-09-29T15:27:35.655Z,17.43
2018-09-29T15:30:04.318Z,16.65
2018-09-29T15:32:32.746Z,17.40
2018-09-29T15:35:01.319Z,18.06
2018-09-29T15:37:29.788Z,17.87
2018-09-29T15:39:58.265Z,18.59
2018-09-29T15:42:26.711Z,18.78
2018-09-29T15:44:55.224Z,17.88
2018-09-29T15:47:23.692Z,17.37
2018-09-29T15:49:52.166Z,16.93
2018-09-29T15:52:21.426Z,18.46
2018-09-29T15:54:49.890Z,18.27
2018-09-29T15:57:18.458Z,19.41
2018-09-29T15:59:46.945Z,20.22
2018-09-29T16:02:15.383Z,21.04
2018-09-29T16:04:44.269Z,23.35
2018-09-29T16:07:13.242Z,26.90
2018-09-29T16:09:42.773Z,28.59
2018-09-29T16:12:11.186Z,30.54
2018-09-29T16:14:39.652Z,31.20
2018-09-29T16:17:08.101Z,31.84
2018-09-29T16:19:36.534Z,32.34
2018-09-29T16:22:05.034Z,33.52
2018-09-29T16:24:33.443Z,33.89
2018-09-29T16:27:01.881Z,34.36
2018-09-29T16:29:30.338Z,34.32
2018-09-29T16:31:58.888Z,34.70
2018-09-29T16:34:27.878Z,35.83
2018-09-29T16:36:56.974Z,35.89
2018-09-29T16:39:25.406Z,36.13
2018-09-29T16:41:53.898Z,36.86
2018-09-29T16:44:22.334Z,36.73
2018-09-29T16:46:50.803Z,37.04
2018-09-29T16:49:19.224Z,36.99
2018-09-29T16:51:47.726Z,37.37
2018-09-29T16:54:16.182Z,37.84
2018-09-29T16:56:44.711Z,38.17
2018-09-29T16:59:13.232Z,38.54
2018-09-29T17:01:41.761Z,38.76
2018-09-29T17:04:10.339Z,38.74
2018-09-29T17:06:38.791Z,38.31
2018-09-29T17:09:11.318Z,38.79
2018-09-29T17:11:40.362Z,39.31
2018-09-29T17:14:08.946Z,39.67
2018-09-29T17:16:37.562Z,39.63
2018-09-29T17:19:06.930Z,39.85
2018-09-29T17:21:36.125Z,39.47
2018-09-29T17:24:04.821Z,39.92
2018-09-29T17:26:33.526Z,40.42
2018-09-29T17:29:02.841Z,39.53
2018-09-29T17:31:31.429Z,40.55
2018-09-29T17:34:00.092Z,40.30
2018-09-29T17:36:28.546Z,40.74
2018-09-29T17:38:57.367Z,41.32
2018-09-29T17:41:27.424Z,40.45
2018-09-29T17:43:55.929Z,41.51
2018-09-29T17:46:24.387Z,40.36
2018-09-29T17:48:52.881Z,40.54
2018-09-29T17:51:21.308Z,41.44
2018-09-29T17:53:49.831Z,41.30
2018-09-29T17:56:18.700Z,41.66
2018-09-29T17:58:47.271Z,40.96
2018-09-29T18:01:15.773Z,40.66
2018-09-29T18:03:44.188Z,41.03
2018-09-29T18:06:13.024Z,41.11
2018-09-29T18:08:41.996Z,40.78
2018-09-29T18:11:10.488Z,40.62
2018-09-29T18:13:39.038Z,41.53
2018-09-29T18:16:07.613Z,40.72
2018-09-29T18:18:36.150Z,41.30
2018-09-29T18:21:05.358Z,40.67
2018-09-29T18:23:33.802Z,41.39
2018-09-29T18:26:02.438Z,41.03
2018-09-29T18:28:30.862Z,40.32
2018-09-29T18:30:59.319Z,40.06
2018-09-29T18:33:27.774Z,40.59
2018-09-29T18:35:56.337Z,40.84
2018-09-29T18:38:24.685Z,40.42
2018-09-29T18:40:53.137Z,40.17
2018-09-29T18:43:21.561Z,40.02
2018-09-29T18:45:50.175Z,40.29
2018-09-29T18:48:18.594Z,40.66
2018-09-29T18:50:47.067Z,39.93
2018-09-29T18:53:16.721Z,40.64
2018-09-29T18:55:45.808Z,40.76
2018-09-29T18:58:14.533Z,40.78
2018-09-29T19:00:43.243Z,40.87
2018-09-29T19:03:11.747Z,41.15
2018-09-29T19:05:40.236Z,40.37
2018-09-29T19:08:09.029Z,40.57
2018-09-29T19:10:37.515Z,41.24
2018-09-29T19:13:06.037Z,40.86
2018-09-29T19:15:34.582Z,40.46
2018-09-29T19:18:03.555Z,41.56
2018-09-29T19:20:32.010Z,41.41
2018-09-29T19:23:00.603Z,41.39
2018-09-29T19:25:29.115Z,41.63
2018-09-29T19:27:57.595Z,41.31
2018-09-29T19:30:26.051Z,42.58
2018-09-29T19:32:54.575Z,42.04
2018-09-29T19:35:23.084Z,41.64
2018-09-29T19:37:51.579Z,41.53
2018-09-29T19:40:20.062Z,41.17
2018-09-29T19:42:48.698Z,41.22
2018-09-29T19:45:17.220Z,41.95
2018-09-29T19:47:45.807Z,41.20
2018-09-29T19:50:14.423Z,42.10
2018-09-29T19:52:43.077Z,41.87
2018-09-29T19:55:11.851Z,42.50
2018-09-29T19:57:42.946Z,41.91
2018-09-29T20:00:11.593Z,41.89
2018-09-29T20:02:40.945Z,42.75
2018-09-29T20:05:10.338Z,42.08
2018-09-29T20:07:39.409Z,42.16
2018-09-29T20:10:11.840Z,42.43
2018-09-29T20:12:40.326Z,43.46
2018-09-29T20:15:08.894Z,43.56
2018-09-29T20:17:37.359Z,42.26
2018-09-29T20:20:06.956Z,42.44
2018-09-29T20:22:35.401Z,43.39
2018-09-29T20:25:04.363Z,42.14
2018-09-29T20:27:32.799Z,42.79
2018-09-29T20:30:01.276Z,42.40
2018-09-29T20:32:29.719Z,43.05
2018-09-29T20:34:58.207Z,42.79
2018-09-29T20:37:26.635Z,42.09
2018-09-29T20:39:55.123Z,41.95
2018-09-29T20:42:23.642Z,42.23
2018-09-29T20:44:52.113Z,42.68
2018-09-29T20:47:20.687Z,42.42
2018-09-29T20:49:49.210Z,43.61
2018-09-29T20:52:17.776Z,43.85
2018-09-29T20:54:46.264Z,43.38
2018-09-29T20:57:14.904Z,42.68
2018-09-29T20:59:43.427Z,43.14
2018-09-29T21:02:13.240Z,43.08
2018-09-29T21:04:41.667Z,42.59
2018-09-29T21:07:10.165Z,42.75
2018-09-29T21:09:38.593Z,43.00
2018-09-29T21:12:07.184Z,43.55
2018-09-29T21:14:35.675Z,42.48
2018-09-29T21:17:05.438Z,42.35
2018-09-29T21:19:34.029Z,43.10
2018-09-29T21:22:02.943Z,42.93
2018-09-29T21:24:31.407Z,42.21
2018-09-29T21:26:59.851Z,42.56
2018-09-29T21:29:28.287Z,42.71
2018-09-29T21:31:56.766Z,41.91
2018-09-29T21:34:25.238Z,41.93
2018-09-29T21:36:53.715Z,42.15
2018-09-29T21:39:22.187Z,42.04
2018-09-29T21:41:50.636Z,41.92
2018-09-29T21:44:19.118Z,42.64
2018-09-29T21:46:47.551Z,43.05
2018-09-29T21:49:16.028Z,43.18
2018-09-29T21:51:44.443Z,42.59
2018-09-29T21:54:12.898Z,42.29
2018-09-29T21:56:41.422Z,43.39
2018-09-29T21:59:09.888Z,43.00
2018-09-29T22:01:38.314Z,43.18
2018-09-29T22:04:06.799Z,43.11
2018-09-29T22:06:35.235Z,43.14
2018-09-29T22:09:04.011Z,43.64
2018-09-29T22:11:32.420Z,43.48
2018-09-29T22:14:00.932Z,43.13
2018-09-29T22:16:29.337Z,43.55
2018-09-29T22:18:57.749Z,43.60
2018-09-29T22:21:26.206Z,43.15
2018-09-29T22:23:54.604Z,43.75
2018-09-29T22:26:23.034Z,44.12
2018-09-29T22:28:51.460Z,43.71
2018-09-29T22:31:19.913Z,44.52
2018-09-29T22:33:48.313Z,43.87
2018-09-29T22:36:16.753Z,43.50
2018-09-29T22:38:45.179Z,43.82
2018-09-29T22:41:13.682Z,44.32
2018-09-29T22:43:44.725Z,44.03
2018-09-29T22:46:13.381Z,44.57
2018-09-29T22:48:41.813Z,44.77
2018-09-29T22:51:10.406Z,44.61
2018-09-29T22:53:38.799Z,43.91
2018-09-29T22:56:07.413Z,45.16
2018-09-29T22:58:35.937Z,44.70
2018-09-29T23:01:04.402Z,44.58
2018-09-29T23:03:32.882Z,45.13
2018-09-29T23:06:01.978Z,44.98
2018-09-29T23:08:30.458Z,44.27
2018-09-29T23:10:58.895Z,44.58
2018-09-29T23:13:27.334Z,44.25
2018-09-29T23:15:55.751Z,44.46
2018-09-29T23:18:24.229Z,45.36
2018-09-29T23:20:52.674Z,45.15
2018-09-29T23:23:21.143Z,45.89
2018-09-29T23:25:49.598Z,45.16
2018-09-29T23:28:18.110Z,45.73
2018-09-29T23:30:46.559Z,45.74
2018-09-29T23:33:15.065Z,45.44
2018-09-29T23:35:43.469Z,45.85
2018-09-29T23:55:28.703Z,46.28
2018-09-29T23:57:57.559Z,45.63
